createdAt,value
2019-01-05T00:03:23.855Z,103580.18
2019-01-05T00:08:26.224Z,103576.78
2019-01-05T00:13:27.840Z,103574.85
2019-01-05T00:18:29.363Z,103570.05
2019-01-05T00:23:32.048Z,103568.73
2019-01-05T00:28:33.619Z,103569.50
2019-01-05T00:33:35.450Z,103563.52
2019-01-05T00:38:38.965Z,103561.18
2019-01-05T00:43:41.960Z,103549.73
2019-01-05T00:48:43.830Z,103546.33
2019-01-05T00:53:45.712Z,103556.39
2019-01-05T00:58:47.395Z,103565.80
2019-01-05T01:03:49.287Z,103557.91
2019-01-05T01:08:50.858Z,103560.52
2019-01-05T01:13:52.427Z,103559.77
2019-01-05T01:18:53.945Z,103548.56
2019-01-05T01:23:55.861Z,103556.53
2019-01-05T01:28:57.379Z,103559.00
2019-01-05T01:34:00.030Z,103559.52
2019-01-05T01:39:06.045Z,103553.61
2019-01-05T01:44:07.929Z,103548.02
2019-01-05T01:49:09.499Z,103557.98
2019-01-05T01:54:11.481Z,103567.70
2019-01-05T01:59:20.531Z,103561.48
2019-01-05T02:04:22.494Z,103566.91
2019-01-05T02:09:24.835Z,103569.14
2019-01-05T02:14:29.756Z,103552.86
2019-01-05T02:19:53.345Z,103543.23
2019-01-05T02:25:32.487Z,103540.92
2019-01-05T02:31:06.830Z,103534.77
2019-01-05T02:36:45.224Z,103534.87
2019-01-05T02:42:36.400Z,103520.94
2019-01-05T02:48:17.391Z,103506.49
2019-01-05T02:53:57.758Z,103493.48
2019-01-05T02:59:42.067Z,103490.16
2019-01-05T03:05:14.975Z,103486.80
2019-01-05T03:11:09.738Z,103494.72
2019-01-05T03:16:48.996Z,103482.09
2019-01-05T03:22:41.985Z,103474.37
2019-01-05T03:28:24.369Z,103463.08
2019-01-05T03:33:38.752Z,103461.69
2019-01-05T03:39:01.518Z,103459.74
2019-01-05T03:44:42.283Z,103459.11
2019-01-05T03:50:29.496Z,103458.31
2019-01-05T03:56:14.220Z,103471.16
2019-01-05T04:02:03.872Z,103462.77
2019-01-05T04:07:26.295Z,103457.55
2019-01-05T04:13:17.902Z,103451.11
2019-01-05T04:18:56.134Z,103467.67
2019-01-05T04:24:34.834Z,103463.03
2019-01-05T04:30:13.449Z,103450.98
2019-01-05T04:35:46.342Z,103450.44
2019-01-05T04:41:19.564Z,103435.15
2019-01-05T04:47:10.129Z,103442.35
2019-01-05T04:52:49.148Z,103431.14
2019-01-05T04:58:32.214Z,103434.13
2019-01-05T05:04:09.664Z,103425.83
2019-01-05T05:09:49.018Z,103438.84
2019-01-05T05:15:29.277Z,103421.07
2019-01-05T05:21:18.098Z,103418.84
2019-01-05T05:26:51.932Z,103420.02
2019-01-05T05:32:29.732Z,103416.98
2019-01-05T05:38:12.046Z,103424.02
2019-01-05T05:44:12.677Z,103417.75
2019-01-05T05:49:50.600Z,103411.84
2019-01-05T05:55:18.485Z,103408.44
2019-01-05T06:00:45.938Z,103407.00
2019-01-05T06:06:23.990Z,103407.05
2019-01-05T06:12:03.336Z,103420.27
2019-01-05T06:17:40.340Z,103417.41
2019-01-05T06:23:27.326Z,103418.96
2019-01-05T06:28:51.312Z,103416.86
2019-01-05T06:34:34.618Z,103418.96
2019-01-05T06:40:13.070Z,103423.89
2019-01-05T06:45:53.570Z,103424.41
2019-01-05T06:51:28.558Z,103421.50
2019-01-05T06:57:07.168Z,103419.98
2019-01-05T07:02:42.628Z,103418.38
2019-01-05T07:08:26.199Z,103417.20
2019-01-05T07:14:04.784Z,103426.89
2019-01-05T07:19:42.744Z,103433.96
2019-01-05T07:25:21.872Z,103442.02
2019-01-05T07:30:52.835Z,103438.81
2019-01-05T07:36:58.535Z,103436.62
2019-01-05T07:42:50.922Z,103441.17
2019-01-05T07:48:39.866Z,103452.00
2019-01-05T07:54:18.081Z,103448.84
2019-01-05T08:00:13.020Z,103448.59
2019-01-05T08:05:58.193Z,103453.19
2019-01-05T08:11:35.107Z,103460.59
2019-01-05T08:17:20.222Z,103453.30
2019-01-05T08:22:57.886Z,103447.45
2019-01-05T08:28:28.804Z,103440.41
2019-01-05T08:34:06.885Z,103448.83
2019-01-05T08:39:58.507Z,103445.20
2019-01-05T08:45:46.635Z,103441.03
2019-01-05T08:51:23.022Z,103455.23
2019-01-05T08:57:05.238Z,103456.61
2019-01-05T09:03:03.263Z,103462.70
2019-01-05T09:08:59.805Z,103468.22
2019-01-05T09:14:47.953Z,103469.02
2019-01-05T09:20:23.533Z,103471.79
2019-01-05T09:26:00.327Z,103473.86
2019-01-05T09:31:58.100Z,103466.69
2019-01-05T09:37:37.692Z,103477.98
2019-01-05T09:43:07.207Z,103469.49
2019-01-05T09:48:40.593Z,103468.31
2019-01-05T09:54:28.287Z,103467.55
2019-01-05T10:00:13.625Z,103466.63
2019-01-05T10:05:47.708Z,103472.97
2019-01-05T10:11:31.062Z,103469.17
2019-01-05T10:17:48.876Z,103471.41
2019-01-05T10:23:32.729Z,103463.55
2019-01-05T10:29:17.693Z,103458.45
2019-01-05T10:34:44.009Z,103452.33
2019-01-05T10:40:38.705Z,103451.14
2019-01-05T10:46:04.874Z,103446.20
2019-01-05T10:51:57.271Z,103446.32
2019-01-05T10:57:45.291Z,103443.63
2019-01-05T11:03:17.204Z,103445.58
2019-01-05T11:08:49.124Z,103446.73
2019-01-05T11:14:39.157Z,103444.06
2019-01-05T11:20:18.562Z,103446.53
2019-01-05T11:26:00.643Z,103442.22
2019-01-05T11:31:42.877Z,103432.45
2019-01-05T11:37:30.368Z,103422.09
2019-01-05T11:43:35.106Z,103432.45
2019-01-05T11:49:21.592Z,103429.34
2019-01-05T11:55:08.634Z,103423.83
2019-01-05T12:00:52.455Z,103416.94
2019-01-05T12:06:31.751Z,103418.24
2019-01-05T12:12:21.424Z,103412.17
2019-01-05T12:18:32.701Z,103411.91
2019-01-05T12:24:24.142Z,103400.38
2019-01-05T12:30:23.795Z,103398.77
2019-01-05T12:36:25.596Z,103402.34
2019-01-05T12:42:05.691Z,103392.94
2019-01-05T12:47:58.488Z,103386.91
2019-01-05T12:53:25.316Z,103392.23
2019-01-05T12:59:12.372Z,103385.34
2019-01-05T13:05:00.552Z,103406.33
2019-01-05T13:10:30.212Z,103402.81
2019-01-05T13:16:25.547Z,103400.32
2019-01-05T13:22:01.860Z,103391.89
2019-01-05T13:28:02.014Z,103396.73
2019-01-05T13:33:50.283Z,103393.17
2019-01-05T13:39:41.927Z,103389.86
2019-01-05T13:45:16.962Z,103400.38
2019-01-05T13:50:55.571Z,103405.34
2019-01-05T13:56:12.889Z,103425.73
2019-01-05T14:01:15.324Z,103418.78
2019-01-05T14:06:16.838Z,103409.63
2019-01-05T14:11:18.450Z,103413.39
2019-01-05T14:16:20.139Z,103416.02
2019-01-05T14:21:21.782Z,103413.66
2019-01-05T14:26:23.904Z,103408.70
2019-01-05T14:31:25.477Z,103409.47
2019-01-05T14:36:27.064Z,103415.63
2019-01-05T14:41:28.670Z,103423.19
2019-01-05T14:46:30.223Z,103419.27
2019-01-05T14:51:31.959Z,103415.77
2019-01-05T14:56:33.462Z,103420.16
2019-01-05T15:01:35.145Z,103427.08
2019-01-05T15:06:36.734Z,103424.21
2019-01-05T15:11:38.438Z,103427.72
2019-01-05T15:16:40.061Z,103438.18
2019-01-05T15:21:41.611Z,103423.13
2019-01-05T15:26:43.232Z,103422.47
2019-01-05T15:31:44.851Z,103429.19
2019-01-05T15:36:46.468Z,103439.20
2019-01-05T15:41:48.376Z,103446.28
2019-01-05T15:46:50.213Z,103439.67
2019-01-05T15:51:51.812Z,103439.34
2019-01-05T15:56:53.359Z,103448.07
2019-01-05T16:01:54.898Z,103441.80
2019-01-05T16:06:56.484Z,103442.73
2019-01-05T16:11:58.333Z,103442.30
2019-01-05T16:16:59.881Z,103446.44
2019-01-05T16:22:01.480Z,103462.91
2019-01-05T16:27:03.077Z,103464.38
2019-01-05T16:32:04.986Z,103470.70
2019-01-05T16:37:06.563Z,103472.20
2019-01-05T16:42:08.200Z,103465.88
2019-01-05T16:47:09.780Z,103460.03
2019-01-05T16:52:11.379Z,103464.88
2019-01-05T16:57:12.988Z,103457.30
2019-01-05T17:02:14.937Z,103460.83
2019-01-05T17:07:16.453Z,103456.74
2019-01-05T17:12:18.344Z,103454.14
2019-01-05T17:17:19.921Z,103465.59
2019-01-05T17:22:21.941Z,103472.53
2019-01-05T17:27:23.531Z,103471.22
2019-01-05T17:32:25.438Z,103471.73
2019-01-05T17:37:27.043Z,103481.17
2019-01-05T17:42:30.477Z,103471.73
2019-01-05T17:47:32.044Z,103485.41
2019-01-05T17:52:34.072Z,103491.64
2019-01-05T17:57:37.602Z,103474.23
2019-01-05T18:02:39.451Z,103474.03
2019-01-05T18:07:41.023Z,103468.92
2019-01-05T18:12:42.662Z,103469.77
2019-01-05T18:17:44.221Z,103479.83
2019-01-05T18:22:45.817Z,103486.11
2019-01-05T18:27:49.188Z,103491.49
2019-01-05T18:32:50.722Z,103487.03
2019-01-05T18:37:52.306Z,103476.21
2019-01-05T18:42:55.162Z,103480.50
2019-01-05T18:47:56.689Z,103487.03
2019-01-05T18:52:58.231Z,103481.67
2019-01-05T18:58:00.150Z,103478.14
2019-01-05T19:03:01.770Z,103481.81
2019-01-05T19:08:03.343Z,103496.96
2019-01-05T19:13:04.979Z,103490.95
2019-01-05T19:18:10.727Z,103485.21
2019-01-05T19:23:12.380Z,103464.16
2019-01-05T19:28:13.922Z,103455.91
2019-01-05T19:33:15.442Z,103457.83
2019-01-05T19:38:17.014Z,103469.16
2019-01-05T19:43:18.571Z,103470.87
2019-01-05T19:48:20.253Z,103465.19
2019-01-05T19:53:22.172Z,103463.16
2019-01-05T19:58:23.731Z,103456.02
2019-01-05T20:03:25.820Z,103459.88
2019-01-05T20:08:28.737Z,103457.27
2019-01-05T20:13:33.204Z,103459.18
2019-01-05T20:18:34.826Z,103462.09
2019-01-05T20:23:37.041Z,103466.83
2019-01-05T20:28:38.641Z,103458.00
2019-01-05T20:33:40.236Z,103462.29
2019-01-05T20:38:48.155Z,103462.46
2019-01-05T20:43:49.745Z,103463.77
2019-01-05T20:48:51.690Z,103454.63
2019-01-05T20:53:54.142Z,103463.38
2019-01-05T20:58:55.753Z,103464.82
2019-01-05T21:03:57.325Z,103472.27
2019-01-05T21:08:59.246Z,103472.52
2019-01-05T21:14:00.800Z,103464.31
2019-01-05T21:19:02.397Z,103471.34
2019-01-05T21:24:03.920Z,103470.05
2019-01-05T21:29:05.483Z,103476.19
2019-01-05T21:34:07.118Z,103478.80
2019-01-05T21:39:09.102Z,103485.26
2019-01-05T21:44:10.625Z,103477.13
2019-01-05T21:49:14.023Z,103473.14
2019-01-05T21:54:15.672Z,103473.34
2019-01-05T21:59:17.262Z,103472.91
2019-01-05T22:04:18.808Z,103477.50
2019-01-05T22:09:20.382Z,103476.58
2019-01-05T22:14:21.949Z,103481.41
2019-01-05T22:19:23.519Z,103484.70
2019-01-05T22:24:25.094Z,103485.64
2019-01-05T22:29:26.868Z,103486.56
2019-01-05T22:34:28.424Z,103478.88
2019-01-05T22:39:30.649Z,103477.44
2019-01-05T22:44:41.055Z,103474.44
2019-01-05T22:49:45.588Z,103469.73
2019-01-05T22:54:47.702Z,103475.95
2019-01-05T22:59:49.314Z,103483.48
2019-01-05T23:04:51.239Z,103481.41
2019-01-05T23:09:52.750Z,103485.33
2019-01-05T23:14:54.339Z,103478.98
2019-01-05T23:19:56.302Z,103477.81
2019-01-05T23:24:58.213Z,103482.95
2019-01-05T23:29:59.763Z,103485.70
2019-01-05T23:35:01.369Z,103489.16
2019-01-05T23:40:03.273Z,103478.34
2019-01-05T23:45:04.828Z,103472.95
2019-01-05T23:50:06.416Z,103461.23
2019-01-05T23:55:07.988Z,103459.33
